sensor_id;sensor_type;location;lat;lon;timestamp;P1;durP1;ratioP1;P2;durP2;ratioP2
57800;SDS011;43627;42.728;23.256;2022-12-18T00:01:15;17.52;;;10.32;;
57800;SDS011;43627;42.728;23.256;2022-12-18T00:03:45;14.73;;;9.07;;
57800;SDS011;43627;42.728;23.256;2022-12-18T00:06:13;15.57;;;8.48;;
57800;SDS011;43627;42.728;23.256;2022-12-18T00:08:40;14.13;;;8.50;;
57800;SDS011;43627;42.728;23.256;2022-12-18T00:11:08;12.60;;;8.13;;
57800;SDS011;43627;42.728;23.256;2022-12-18T00:13:39;11.65;;;7.80;;
57800;SDS011;43627;42.728;23.256;2022-12-18T00:16:07;15.55;;;8.52;;
57800;SDS011;43627;42.728;23.256;2022-12-18T00:18:38;15.90;;;9.13;;
57800;SDS011;43627;42.728;23.256;2022-12-18T00:21:06;16.27;;;9.10;;
57800;SDS011;43627;42.728;23.256;2022-12-18T00:23:35;12.70;;;8.65;;
57800;SDS011;43627;42.728;23.256;2022-12-18T00:26:05;16.08;;;9.85;;
57800;SDS011;43627;42.728;23.256;2022-12-18T00:28:34;16.80;;;9.15;;
57800;SDS011;43627;42.728;23.256;2022-12-18T00:31:05;14.38;;;8.00;;
57800;SDS011;43627;42.728;23.256;2022-12-18T00:33:33;16.48;;;9.70;;
57800;SDS011;43627;42.728;23.256;2022-12-18T00:36:06;13.07;;;8.40;;
57800;SDS011;43627;42.728;23.256;2022-12-18T00:38:35;13.60;;;8.30;;
57800;SDS011;43627;42.728;23.256;2022-12-18T00:41:03;14.02;;;8.55;;
57800;SDS011;43627;42.728;23.256;2022-12-18T00:43:33;17.08;;;8.75;;
57800;SDS011;43627;42.728;23.256;2022-12-18T00:46:02;14.63;;;7.55;;
57800;SDS011;43627;42.728;23.256;2022-12-18T00:48:30;14.13;;;7.68;;
57800;SDS011;43627;42.728;23.256;2022-12-18T00:50:57;15.70;;;9.32;;
57800;SDS011;43627;42.728;23.256;2022-12-18T00:53:23;16.02;;;8.98;;
57800;SDS011;43627;42.728;23.256;2022-12-18T00:55:50;17.95;;;8.23;;
57800;SDS011;43627;42.728;23.256;2022-12-18T00:58:17;15.77;;;9.57;;
57800;SDS011;43627;42.728;23.256;2022-12-18T01:00:44;16.45;;;9.52;;
57800;SDS011;43627;42.728;23.256;2022-12-18T01:03:12;17.08;;;9.90;;
57800;SDS011;43627;42.728;23.256;2022-12-18T01:05:40;16.38;;;9.52;;
57800;SDS011;43627;42.728;23.256;2022-12-18T01:08:08;20.92;;;10.60;;
57800;SDS011;43627;42.728;23.256;2022-12-18T01:10:35;17.63;;;10.30;;
57800;SDS011;43627;42.728;23.256;2022-12-18T01:13:01;17.48;;;10.55;;
57800;SDS011;43627;42.728;23.256;2022-12-18T01:15:28;22.60;;;11.45;;
57800;SDS011;43627;42.728;23.256;2022-12-18T01:17:55;14.95;;;9.63;;
57800;SDS011;43627;42.728;23.256;2022-12-18T01:20:21;17.35;;;10.75;;
57800;SDS011;43627;42.728;23.256;2022-12-18T01:22:48;16.38;;;10.20;;
57800;SDS011;43627;42.728;23.256;2022-12-18T01:25:15;19.73;;;10.02;;
57800;SDS011;43627;42.728;23.256;2022-12-18T01:27:42;22.00;;;11.35;;
57800;SDS011;43627;42.728;23.256;2022-12-18T01:30:09;21.20;;;10.57;;
57800;SDS011;43627;42.728;23.256;2022-12-18T01:32:36;21.52;;;11.23;;
57800;SDS011;43627;42.728;23.256;2022-12-18T01:35:03;17.70;;;9.25;;
57800;SDS011;43627;42.728;23.256;2022-12-18T01:37:31;17.63;;;10.13;;
57800;SDS011;43627;42.728;23.256;2022-12-18T01:39:58;22.23;;;12.18;;
57800;SDS011;43627;42.728;23.256;2022-12-18T01:42:24;18.40;;;10.65;;
57800;SDS011;43627;42.728;23.256;2022-12-18T01:50:34;19.95;;;9.55;;
57800;SDS011;43627;42.728;23.256;2022-12-18T01:55:38;20.17;;;10.98;;
57800;SDS011;43627;42.728;23.256;2022-12-18T01:58:18;18.35;;;10.90;;
57800;SDS011;43627;42.728;23.256;2022-12-18T02:00:46;19.95;;;10.32;;
57800;SDS011;43627;42.728;23.256;2022-12-18T02:03:13;15.40;;;9.38;;
57800;SDS011;43627;42.728;23.256;2022-12-18T02:05:44;13.75;;;7.47;;
57800;SDS011;43627;42.728;23.256;2022-12-18T02:08:20;12.55;;;7.80;;
57800;SDS011;43627;42.728;23.256;2022-12-18T02:10:59;13.27;;;8.32;;
57800;SDS011;43627;42.728;23.256;2022-12-18T02:13:50;15.23;;;8.68;;
57800;SDS011;43627;42.728;23.256;2022-12-18T02:16:34;16.40;;;9.02;;
57800;SDS011;43627;42.728;23.256;2022-12-18T02:22:10;12.63;;;7.50;;
57800;SDS011;43627;42.728;23.256;2022-12-18T02:25:13;16.00;;;9.05;;
57800;SDS011;43627;42.728;23.256;2022-12-18T02:27:56;11.90;;;7.72;;
57800;SDS011;43627;42.728;23.256;2022-12-18T02:30:26;17.27;;;8.55;;
57800;SDS011;43627;42.728;23.256;2022-12-18T02:32:57;12.00;;;7.63;;
57800;SDS011;43627;42.728;23.256;2022-12-18T02:35:27;13.48;;;8.00;;
57800;SDS011;43627;42.728;23.256;2022-12-18T02:37:56;15.45;;;8.77;;
57800;SDS011;43627;42.728;23.256;2022-12-18T02:40:25;17.92;;;8.82;;
57800;SDS011;43627;42.728;23.256;2022-12-18T02:42:54;10.88;;;6.72;;
57800;SDS011;43627;42.728;23.256;2022-12-18T02:45:21;15.75;;;8.35;;
57800;SDS011;43627;42.728;23.256;2022-12-18T02:47:48;15.35;;;9.27;;
57800;SDS011;43627;42.728;23.256;2022-12-18T02:50:22;12.45;;;8.13;;
57800;SDS011;43627;42.728;23.256;2022-12-18T02:53:17;14.38;;;8.45;;
57800;SDS011;43627;42.728;23.256;2022-12-18T03:04:01;18.15;;;10.05;;
57800;SDS011;43627;42.728;23.256;2022-12-18T03:06:42;22.67;;;8.60;;
57800;SDS011;43627;42.728;23.256;2022-12-18T03:09:35;19.10;;;9.20;;
57800;SDS011;43627;42.728;23.256;2022-12-18T03:12:17;21.33;;;10.43;;
57800;SDS011;43627;42.728;23.256;2022-12-18T03:14:52;15.60;;;9.23;;
57800;SDS011;43627;42.728;23.256;2022-12-18T03:17:25;15.32;;;8.63;;
57800;SDS011;43627;42.728;23.256;2022-12-18T03:19:54;12.00;;;6.35;;
57800;SDS011;43627;42.728;23.256;2022-12-18T03:22:25;15.73;;;8.73;;
57800;SDS011;43627;42.728;23.256;2022-12-18T03:24:56;14.83;;;8.33;;
57800;SDS011;43627;42.728;23.256;2022-12-18T03:27:23;12.85;;;7.25;;
57800;SDS011;43627;42.728;23.256;2022-12-18T03:29:55;12.73;;;8.25;;
57800;SDS011;43627;42.728;23.256;2022-12-18T03:32:35;13.13;;;7.40;;
57800;SDS011;43627;42.728;23.256;2022-12-18T03:35:07;17.25;;;8.75;;
57800;SDS011;43627;42.728;23.256;2022-12-18T03:37:38;14.50;;;8.15;;
57800;SDS011;43627;42.728;23.256;2022-12-18T03:40:05;13.10;;;8.27;;
57800;SDS011;43627;42.728;23.256;2022-12-18T03:42:33;15.63;;;8.95;;
57800;SDS011;43627;42.728;23.256;2022-12-18T03:56:18;18.80;;;10.63;;
57800;SDS011;43627;42.728;23.256;2022-12-18T03:58:49;16.15;;;9.35;;
57800;SDS011;43627;42.728;23.256;2022-12-18T04:01:19;20.48;;;11.45;;
57800;SDS011;43627;42.728;23.256;2022-12-18T04:03:53;17.58;;;9.82;;
57800;SDS011;43627;42.728;23.256;2022-12-18T04:06:21;25.85;;;14.00;;
57800;SDS011;43627;42.728;23.256;2022-12-18T04:08:48;17.90;;;10.05;;
57800;SDS011;43627;42.728;23.256;2022-12-18T04:11:15;19.92;;;10.15;;
57800;SDS011;43627;42.728;23.256;2022-12-18T04:13:42;22.95;;;11.52;;
57800;SDS011;43627;42.728;23.256;2022-12-18T04:16:09;21.27;;;11.55;;
57800;SDS011;43627;42.728;23.256;2022-12-18T04:18:36;20.95;;;12.07;;
57800;SDS011;43627;42.728;23.256;2022-12-18T04:21:03;19.58;;;12.07;;
57800;SDS011;43627;42.728;23.256;2022-12-18T04:23:30;20.20;;;11.98;;
57800;SDS011;43627;42.728;23.256;2022-12-18T04:25:56;25.35;;;12.70;;
57800;SDS011;43627;42.728;23.256;2022-12-18T04:28:23;23.85;;;11.93;;
57800;SDS011;43627;42.728;23.256;2022-12-18T04:30:50;23.73;;;13.02;;
57800;SDS011;43627;42.728;23.256;2022-12-18T04:33:17;23.25;;;11.75;;
57800;SDS011;43627;42.728;23.256;2022-12-18T04:35:44;22.23;;;12.40;;
57800;SDS011;43627;42.728;23.256;2022-12-18T04:38:11;19.95;;;11.57;;
57800;SDS011;43627;42.728;23.256;2022-12-18T04:40:38;23.75;;;12.82;;
57800;SDS011;43627;42.728;23.256;2022-12-18T04:43:06;21.50;;;11.75;;
57800;SDS011;43627;42.728;23.256;2022-12-18T04:45:33;24.73;;;12.77;;
57800;SDS011;43627;42.728;23.256;2022-12-18T04:48:01;21.30;;;11.18;;
57800;SDS011;43627;42.728;23.256;2022-12-18T04:50:28;19.80;;;11.68;;
57800;SDS011;43627;42.728;23.256;2022-12-18T04:52:56;24.75;;;13.23;;
57800;SDS011;43627;42.728;23.256;2022-12-18T04:55:26;20.88;;;10.68;;
57800;SDS011;43627;42.728;23.256;2022-12-18T04:57:53;26.10;;;14.48;;
57800;SDS011;43627;42.728;23.256;2022-12-18T05:00:20;28.75;;;13.48;;
57800;SDS011;43627;42.728;23.256;2022-12-18T05:02:47;25.33;;;14.35;;
57800;SDS011;43627;42.728;23.256;2022-12-18T05:05:14;27.48;;;14.63;;
57800;SDS011;43627;42.728;23.256;2022-12-18T05:07:41;26.15;;;13.95;;
57800;SDS011;43627;42.728;23.256;2022-12-18T05:10:08;27.42;;;14.13;;
57800;SDS011;43627;42.728;23.256;2022-12-18T05:12:35;28.20;;;15.00;;
57800;SDS011;43627;42.728;23.256;2022-12-18T05:15:22;31.20;;;15.57;;
57800;SDS011;43627;42.728;23.256;2022-12-18T05:17:48;25.73;;;13.20;;
57800;SDS011;43627;42.728;23.256;2022-12-18T05:20:15;28.00;;;14.15;;
57800;SDS011;43627;42.728;23.256;2022-12-18T05:22:42;27.58;;;14.50;;
57800;SDS011;43627;42.728;23.256;2022-12-18T05:25:09;28.75;;;14.30;;
57800;SDS011;43627;42.728;23.256;2022-12-18T05:27:35;29.10;;;13.73;;
57800;SDS011;43627;42.728;23.256;2022-12-18T05:30:02;27.73;;;14.10;;
57800;SDS011;43627;42.728;23.256;2022-12-18T05:32:29;28.02;;;14.55;;
57800;SDS011;43627;42.728;23.256;2022-12-18T05:34:56;28.35;;;14.70;;
57800;SDS011;43627;42.728;23.256;2022-12-18T05:37:23;27.58;;;14.45;;
57800;SDS011;43627;42.728;23.256;2022-12-18T05:39:50;27.30;;;14.20;;
57800;SDS011;43627;42.728;23.256;2022-12-18T05:42:16;28.95;;;15.73;;
57800;SDS011;43627;42.728;23.256;2022-12-18T05:44:43;32.20;;;15.57;;
57800;SDS011;43627;42.728;23.256;2022-12-18T05:47:10;30.23;;;14.20;;
57800;SDS011;43627;42.728;23.256;2022-12-18T05:49:37;31.63;;;16.10;;
57800;SDS011;43627;42.728;23.256;2022-12-18T05:52:03;29.25;;;15.50;;
57800;SDS011;43627;42.728;23.256;2022-12-18T05:54:30;32.00;;;16.13;;
57800;SDS011;43627;42.728;23.256;2022-12-18T05:56:58;29.65;;;14.48;;
57800;SDS011;43627;42.728;23.256;2022-12-18T05:59:24;30.83;;;13.57;;
57800;SDS011;43627;42.728;23.256;2022-12-18T06:01:51;29.95;;;16.02;;
57800;SDS011;43627;42.728;23.256;2022-12-18T06:04:18;34.13;;;16.10;;
57800;SDS011;43627;42.728;23.256;2022-12-18T06:06:45;32.22;;;15.10;;
57800;SDS011;43627;42.728;23.256;2022-12-18T06:09:11;29.25;;;15.00;;
57800;SDS011;43627;42.728;23.256;2022-12-18T06:11:38;29.20;;;15.23;;
57800;SDS011;43627;42.728;23.256;2022-12-18T06:14:05;25.77;;;12.05;;
57800;SDS011;43627;42.728;23.256;2022-12-18T06:16:32;28.35;;;14.85;;
57800;SDS011;43627;42.728;23.256;2022-12-18T06:18:59;25.70;;;14.10;;
57800;SDS011;43627;42.728;23.256;2022-12-18T06:21:28;27.60;;;14.13;;
57800;SDS011;43627;42.728;23.256;2022-12-18T06:23:57;30.38;;;15.10;;
57800;SDS011;43627;42.728;23.256;2022-12-18T06:26:24;26.63;;;13.93;;
57800;SDS011;43627;42.728;23.256;2022-12-18T06:28:53;25.45;;;12.57;;
57800;SDS011;43627;42.728;23.256;2022-12-18T06:31:20;26.30;;;13.18;;
57800;SDS011;43627;42.728;23.256;2022-12-18T06:33:47;30.02;;;14.20;;
57800;SDS011;43627;42.728;23.256;2022-12-18T06:36:14;22.30;;;11.00;;
57800;SDS011;43627;42.728;23.256;2022-12-18T06:38:42;25.70;;;14.18;;
57800;SDS011;43627;42.728;23.256;2022-12-18T06:41:10;23.65;;;12.48;;
57800;SDS011;43627;42.728;23.256;2022-12-18T06:43:43;24.48;;;12.85;;
57800;SDS011;43627;42.728;23.256;2022-12-18T06:46:10;26.05;;;13.82;;
57800;SDS011;43627;42.728;23.256;2022-12-18T06:48:37;27.15;;;12.93;;
57800;SDS011;43627;42.728;23.256;2022-12-18T06:51:04;26.33;;;14.10;;
57800;SDS011;43627;42.728;23.256;2022-12-18T06:53:32;27.33;;;14.10;;
57800;SDS011;43627;42.728;23.256;2022-12-18T06:56:03;25.15;;;13.38;;
57800;SDS011;43627;42.728;23.256;2022-12-18T06:58:35;27.25;;;13.13;;
57800;SDS011;43627;42.728;23.256;2022-12-18T07:01:03;26.83;;;13.85;;
57800;SDS011;43627;42.728;23.256;2022-12-18T07:03:32;27.02;;;14.25;;
57800;SDS011;43627;42.728;23.256;2022-12-18T07:05:58;31.48;;;15.15;;
57800;SDS011;43627;42.728;23.256;2022-12-18T07:08:25;31.77;;;14.02;;
57800;SDS011;43627;42.728;23.256;2022-12-18T07:10:52;25.38;;;13.90;;
57800;SDS011;43627;42.728;23.256;2022-12-18T07:13:21;32.83;;;15.88;;
57800;SDS011;43627;42.728;23.256;2022-12-18T07:15:48;29.38;;;15.50;;
57800;SDS011;43627;42.728;23.256;2022-12-18T07:18:15;31.08;;;16.23;;
57800;SDS011;43627;42.728;23.256;2022-12-18T07:20:42;33.08;;;16.77;;
57800;SDS011;43627;42.728;23.256;2022-12-18T07:23:11;30.70;;;15.65;;
57800;SDS011;43627;42.728;23.256;2022-12-18T07:25:38;33.03;;;17.25;;
57800;SDS011;43627;42.728;23.256;2022-12-18T07:28:05;29.70;;;15.75;;
57800;SDS011;43627;42.728;23.256;2022-12-18T07:30:36;33.00;;;15.88;;
57800;SDS011;43627;42.728;23.256;2022-12-18T07:33:03;30.52;;;14.93;;
57800;SDS011;43627;42.728;23.256;2022-12-18T07:35:30;29.92;;;14.82;;
57800;SDS011;43627;42.728;23.256;2022-12-18T07:37:58;29.15;;;15.73;;
57800;SDS011;43627;42.728;23.256;2022-12-18T07:40:28;31.70;;;14.73;;
57800;SDS011;43627;42.728;23.256;2022-12-18T07:42:54;31.63;;;15.32;;
57800;SDS011;43627;42.728;23.256;2022-12-18T07:45:21;33.00;;;15.30;;
57800;SDS011;43627;42.728;23.256;2022-12-18T07:47:48;33.78;;;16.77;;
57800;SDS011;43627;42.728;23.256;2022-12-18T07:50:15;32.65;;;17.85;;
57800;SDS011;43627;42.728;23.256;2022-12-18T07:52:42;30.00;;;17.30;;
57800;SDS011;43627;42.728;23.256;2022-12-18T07:55:08;36.08;;;16.13;;
57800;SDS011;43627;42.728;23.256;2022-12-18T07:57:35;37.97;;;18.50;;
57800;SDS011;43627;42.728;23.256;2022-12-18T08:00:22;30.15;;;16.08;;
57800;SDS011;43627;42.728;23.256;2022-12-18T08:02:49;28.67;;;14.48;;
57800;SDS011;43627;42.728;23.256;2022-12-18T08:05:15;32.00;;;15.50;;
57800;SDS011;43627;42.728;23.256;2022-12-18T08:07:42;33.45;;;16.25;;
57800;SDS011;43627;42.728;23.256;2022-12-18T08:10:09;35.83;;;17.70;;
57800;SDS011;43627;42.728;23.256;2022-12-18T08:12:36;39.35;;;17.33;;
57800;SDS011;43627;42.728;23.256;2022-12-18T08:15:03;44.42;;;20.48;;
57800;SDS011;43627;42.728;23.256;2022-12-18T08:17:30;37.25;;;19.35;;
57800;SDS011;43627;42.728;23.256;2022-12-18T08:19:57;34.40;;;16.45;;
57800;SDS011;43627;42.728;23.256;2022-12-18T08:22:23;31.73;;;15.20;;
57800;SDS011;43627;42.728;23.256;2022-12-18T08:24:51;33.25;;;17.17;;
57800;SDS011;43627;42.728;23.256;2022-12-18T08:27:18;30.80;;;15.57;;
57800;SDS011;43627;42.728;23.256;2022-12-18T08:30:00;25.30;;;13.82;;
57800;SDS011;43627;42.728;23.256;2022-12-18T08:32:27;26.92;;;14.48;;
57800;SDS011;43627;42.728;23.256;2022-12-18T08:34:54;28.15;;;12.85;;
57800;SDS011;43627;42.728;23.256;2022-12-18T08:37:21;30.20;;;14.15;;
57800;SDS011;43627;42.728;23.256;2022-12-18T08:39:48;26.52;;;14.18;;
57800;SDS011;43627;42.728;23.256;2022-12-18T08:42:14;30.80;;;14.80;;
57800;SDS011;43627;42.728;23.256;2022-12-18T08:45:00;29.55;;;14.10;;
57800;SDS011;43627;42.728;23.256;2022-12-18T08:47:27;26.40;;;14.35;;
57800;SDS011;43627;42.728;23.256;2022-12-18T08:49:53;26.10;;;13.45;;
57800;SDS011;43627;42.728;23.256;2022-12-18T08:52:20;26.63;;;13.57;;
57800;SDS011;43627;42.728;23.256;2022-12-18T08:54:47;23.27;;;12.45;;
57800;SDS011;43627;42.728;23.256;2022-12-18T08:57:14;32.25;;;14.38;;
57800;SDS011;43627;42.728;23.256;2022-12-18T08:59:42;23.50;;;12.05;;
57800;SDS011;43627;42.728;23.256;2022-12-18T09:02:09;25.98;;;13.48;;
57800;SDS011;43627;42.728;23.256;2022-12-18T09:04:37;30.02;;;13.20;;
57800;SDS011;43627;42.728;23.256;2022-12-18T09:07:06;26.55;;;13.35;;
57800;SDS011;43627;42.728;23.256;2022-12-18T09:09:33;26.25;;;12.57;;
57800;SDS011;43627;42.728;23.256;2022-12-18T09:12:00;20.02;;;11.93;;
57800;SDS011;43627;42.728;23.256;2022-12-18T09:14:26;27.90;;;14.68;;
57800;SDS011;43627;42.728;23.256;2022-12-18T09:16:53;22.92;;;10.00;;
57800;SDS011;43627;42.728;23.256;2022-12-18T09:19:20;23.38;;;11.35;;
57800;SDS011;43627;42.728;23.256;2022-12-18T09:21:47;26.33;;;11.85;;
57800;SDS011;43627;42.728;23.256;2022-12-18T09:24:14;27.90;;;12.32;;
57800;SDS011;43627;42.728;23.256;2022-12-18T09:26:42;29.00;;;12.80;;
57800;SDS011;43627;42.728;23.256;2022-12-18T09:29:13;25.40;;;12.10;;
57800;SDS011;43627;42.728;23.256;2022-12-18T09:31:44;28.55;;;13.27;;
57800;SDS011;43627;42.728;23.256;2022-12-18T09:34:11;27.83;;;13.77;;
57800;SDS011;43627;42.728;23.256;2022-12-18T09:36:37;27.88;;;11.73;;
57800;SDS011;43627;42.728;23.256;2022-12-18T09:39:04;25.15;;;12.85;;
57800;SDS011;43627;42.728;23.256;2022-12-18T09:41:53;26.92;;;12.98;;
57800;SDS011;43627;42.728;23.256;2022-12-18T09:47:11;21.73;;;12.32;;
57800;SDS011;43627;42.728;23.256;2022-12-18T09:49:43;21.10;;;10.40;;
57800;SDS011;43627;42.728;23.256;2022-12-18T09:52:33;26.63;;;11.63;;
57800;SDS011;43627;42.728;23.256;2022-12-18T09:58:14;26.30;;;12.35;;
57800;SDS011;43627;42.728;23.256;2022-12-18T10:00:50;24.20;;;11.80;;
57800;SDS011;43627;42.728;23.256;2022-12-18T10:03:19;24.20;;;11.38;;
57800;SDS011;43627;42.728;23.256;2022-12-18T10:17:01;22.08;;;10.07;;
57800;SDS011;43627;42.728;23.256;2022-12-18T10:27:33;25.13;;;11.93;;
57800;SDS011;43627;42.728;23.256;2022-12-18T10:30:00;25.88;;;11.15;;
57800;SDS011;43627;42.728;23.256;2022-12-18T10:32:29;23.50;;;12.02;;
57800;SDS011;43627;42.728;23.256;2022-12-18T10:34:57;25.02;;;11.93;;
57800;SDS011;43627;42.728;23.256;2022-12-18T10:37:27;22.10;;;11.63;;
57800;SDS011;43627;42.728;23.256;2022-12-18T10:40:15;27.42;;;12.15;;
57800;SDS011;43627;42.728;23.256;2022-12-18T10:43:01;27.07;;;13.07;;
57800;SDS011;43627;42.728;23.256;2022-12-18T10:47:57;21.80;;;10.88;;
57800;SDS011;43627;42.728;23.256;2022-12-18T10:53:06;22.80;;;11.48;;
57800;SDS011;43627;42.728;23.256;2022-12-18T10:55:37;19.67;;;10.25;;
57800;SDS011;43627;42.728;23.256;2022-12-18T11:03:40;32.83;;;13.05;;
57800;SDS011;43627;42.728;23.256;2022-12-18T11:06:13;22.65;;;12.27;;
57800;SDS011;43627;42.728;23.256;2022-12-18T11:08:43;23.70;;;12.30;;
57800;SDS011;43627;42.728;23.256;2022-12-18T11:11:21;23.40;;;11.75;;
57800;SDS011;43627;42.728;23.256;2022-12-18T11:16:29;23.15;;;11.95;;
57800;SDS011;43627;42.728;23.256;2022-12-18T11:19:09;26.55;;;12.30;;
57800;SDS011;43627;42.728;23.256;2022-12-18T11:21:40;24.88;;;13.10;;
57800;SDS011;43627;42.728;23.256;2022-12-18T11:24:15;21.25;;;11.65;;
57800;SDS011;43627;42.728;23.256;2022-12-18T11:26:49;28.92;;;12.85;;
57800;SDS011;43627;42.728;23.256;2022-12-18T11:29:27;30.90;;;13.57;;
57800;SDS011;43627;42.728;23.256;2022-12-18T11:34:41;28.75;;;14.07;;
57800;SDS011;43627;42.728;23.256;2022-12-18T11:37:13;23.92;;;12.00;;
57800;SDS011;43627;42.728;23.256;2022-12-18T11:39:59;26.92;;;12.45;;
57800;SDS011;43627;42.728;23.256;2022-12-18T11:42:38;25.77;;;12.75;;
57800;SDS011;43627;42.728;23.256;2022-12-18T11:47:54;26.38;;;14.05;;
57800;SDS011;43627;42.728;23.256;2022-12-18T11:50:41;29.50;;;15.00;;
57800;SDS011;43627;42.728;23.256;2022-12-18T11:53:17;34.67;;;15.52;;
57800;SDS011;43627;42.728;23.256;2022-12-18T12:01:01;41.50;;;20.10;;
57800;SDS011;43627;42.728;23.256;2022-12-18T12:15:21;26.45;;;11.70;;
57800;SDS011;43627;42.728;23.256;2022-12-18T12:20:30;26.35;;;12.88;;
57800;SDS011;43627;42.728;23.256;2022-12-18T12:23:04;28.58;;;12.25;;
57800;SDS011;43627;42.728;23.256;2022-12-18T12:31:42;26.73;;;13.25;;
57800;SDS011;43627;42.728;23.256;2022-12-18T12:39:48;32.15;;;15.65;;
57800;SDS011;43627;42.728;23.256;2022-12-18T12:45:33;31.58;;;13.43;;
57800;SDS011;43627;42.728;23.256;2022-12-18T12:48:04;30.50;;;13.85;;
57800;SDS011;43627;42.728;23.256;2022-12-18T12:50:36;25.20;;;12.15;;
57800;SDS011;43627;42.728;23.256;2022-12-18T12:53:09;27.65;;;12.63;;
57800;SDS011;43627;42.728;23.256;2022-12-18T12:55:49;26.02;;;11.90;;
57800;SDS011;43627;42.728;23.256;2022-12-18T12:58:41;26.02;;;11.63;;
57800;SDS011;43627;42.728;23.256;2022-12-18T13:02:01;25.33;;;12.68;;
57800;SDS011;43627;42.728;23.256;2022-12-18T13:15:39;28.63;;;13.23;;
57800;SDS011;43627;42.728;23.256;2022-12-18T13:20:47;26.88;;;13.13;;
57800;SDS011;43627;42.728;23.256;2022-12-18T13:25:58;25.52;;;13.52;;
57800;SDS011;43627;42.728;23.256;2022-12-18T13:34:18;27.67;;;12.77;;
57800;SDS011;43627;42.728;23.256;2022-12-18T13:36:56;24.77;;;11.07;;
57800;SDS011;43627;42.728;23.256;2022-12-18T13:39:43;32.13;;;13.85;;
57800;SDS011;43627;42.728;23.256;2022-12-18T13:44:57;27.95;;;13.15;;
57800;SDS011;43627;42.728;23.256;2022-12-18T13:47:31;23.70;;;11.35;;
57800;SDS011;43627;42.728;23.256;2022-12-18T13:50:00;22.58;;;11.35;;
57800;SDS011;43627;42.728;23.256;2022-12-18T13:52:47;29.50;;;12.63;;
57800;SDS011;43627;42.728;23.256;2022-12-18T13:55:16;24.13;;;12.20;;
57800;SDS011;43627;42.728;23.256;2022-12-18T13:57:46;26.05;;;11.32;;
57800;SDS011;43627;42.728;23.256;2022-12-18T14:02:55;28.52;;;12.35;;
57800;SDS011;43627;42.728;23.256;2022-12-18T14:05:34;29.35;;;13.23;;
57800;SDS011;43627;42.728;23.256;2022-12-18T14:08:06;21.95;;;11.80;;
57800;SDS011;43627;42.728;23.256;2022-12-18T14:16:11;21.52;;;11.68;;
57800;SDS011;43627;42.728;23.256;2022-12-18T14:18:44;24.73;;;12.10;;
57800;SDS011;43627;42.728;23.256;2022-12-18T14:21:27;27.15;;;11.68;;
57800;SDS011;43627;42.728;23.256;2022-12-18T14:24:05;23.92;;;10.52;;
57800;SDS011;43627;42.728;23.256;2022-12-18T14:26:35;23.42;;;11.07;;
57800;SDS011;43627;42.728;23.256;2022-12-18T14:29:19;21.42;;;9.77;;
57800;SDS011;43627;42.728;23.256;2022-12-18T14:34:51;20.90;;;10.65;;
57800;SDS011;43627;42.728;23.256;2022-12-18T14:37:21;20.48;;;9.98;;
57800;SDS011;43627;42.728;23.256;2022-12-18T14:42:20;23.13;;;11.07;;
57800;SDS011;43627;42.728;23.256;2022-12-18T14:44:47;20.52;;;10.70;;
57800;SDS011;43627;42.728;23.256;2022-12-18T14:47:33;20.17;;;9.98;;
57800;SDS011;43627;42.728;23.256;2022-12-18T14:50:00;21.02;;;10.23;;
57800;SDS011;43627;42.728;23.256;2022-12-18T14:52:27;19.67;;;10.15;;
57800;SDS011;43627;42.728;23.256;2022-12-18T14:54:57;20.60;;;9.40;;
57800;SDS011;43627;42.728;23.256;2022-12-18T14:57:25;22.83;;;10.60;;
57800;SDS011;43627;42.728;23.256;2022-12-18T15:00:05;18.60;;;9.65;;
57800;SDS011;43627;42.728;23.256;2022-12-18T15:02:34;23.23;;;11.23;;
57800;SDS011;43627;42.728;23.256;2022-12-18T15:05:03;20.90;;;10.15;;
57800;SDS011;43627;42.728;23.256;2022-12-18T15:07:45;21.35;;;10.38;;
57800;SDS011;43627;42.728;23.256;2022-12-18T15:10:18;23.17;;;10.38;;
57800;SDS011;43627;42.728;23.256;2022-12-18T15:13:06;25.00;;;12.15;;
57800;SDS011;43627;42.728;23.256;2022-12-18T15:18:03;22.05;;;10.68;;
57800;SDS011;43627;42.728;23.256;2022-12-18T15:20:31;18.30;;;9.35;;
57800;SDS011;43627;42.728;23.256;2022-12-18T15:22:59;21.00;;;9.63;;
57800;SDS011;43627;42.728;23.256;2022-12-18T15:25:34;22.10;;;9.85;;
57800;SDS011;43627;42.728;23.256;2022-12-18T15:28:03;20.83;;;9.57;;
57800;SDS011;43627;42.728;23.256;2022-12-18T15:30:57;20.17;;;10.18;;
57800;SDS011;43627;42.728;23.256;2022-12-18T15:33:31;25.48;;;11.63;;
57800;SDS011;43627;42.728;23.256;2022-12-18T15:36:04;22.65;;;11.65;;
57800;SDS011;43627;42.728;23.256;2022-12-18T15:41:02;25.52;;;11.98;;
57800;SDS011;43627;42.728;23.256;2022-12-18T15:43:39;21.58;;;11.15;;
57800;SDS011;43627;42.728;23.256;2022-12-18T15:46:14;28.75;;;11.52;;
57800;SDS011;43627;42.728;23.256;2022-12-18T15:48:44;26.08;;;11.57;;
57800;SDS011;43627;42.728;23.256;2022-12-18T15:53:44;22.75;;;10.95;;
57800;SDS011;43627;42.728;23.256;2022-12-18T15:56:13;25.30;;;12.48;;
57800;SDS011;43627;42.728;23.256;2022-12-18T15:59:00;26.05;;;11.95;;
57800;SDS011;43627;42.728;23.256;2022-12-18T16:01:29;26.17;;;12.60;;
57800;SDS011;43627;42.728;23.256;2022-12-18T16:03:58;26.38;;;11.60;;
57800;SDS011;43627;42.728;23.256;2022-12-18T16:06:26;27.20;;;12.35;;
57800;SDS011;43627;42.728;23.256;2022-12-18T16:09:10;25.30;;;13.00;;
57800;SDS011;43627;42.728;23.256;2022-12-18T16:11:37;26.90;;;12.25;;
57800;SDS011;43627;42.728;23.256;2022-12-18T16:14:14;24.50;;;12.30;;
57800;SDS011;43627;42.728;23.256;2022-12-18T16:16:50;26.95;;;12.70;;
57800;SDS011;43627;42.728;23.256;2022-12-18T16:19:19;30.13;;;12.75;;
57800;SDS011;43627;42.728;23.256;2022-12-18T16:21:47;26.65;;;12.88;;
57800;SDS011;43627;42.728;23.256;2022-12-18T16:24:21;27.42;;;13.00;;
57800;SDS011;43627;42.728;23.256;2022-12-18T16:26:49;26.60;;;11.85;;
57800;SDS011;43627;42.728;23.256;2022-12-18T16:29:20;26.05;;;12.75;;
57800;SDS011;43627;42.728;23.256;2022-12-18T16:31:54;28.55;;;13.65;;
57800;SDS011;43627;42.728;23.256;2022-12-18T16:34:31;30.48;;;14.38;;
57800;SDS011;43627;42.728;23.256;2022-12-18T16:37:02;27.70;;;13.40;;
57800;SDS011;43627;42.728;23.256;2022-12-18T16:39:32;26.48;;;13.43;;
57800;SDS011;43627;42.728;23.256;2022-12-18T16:42:01;25.50;;;11.85;;
57800;SDS011;43627;42.728;23.256;2022-12-18T16:44:31;29.38;;;14.45;;
57800;SDS011;43627;42.728;23.256;2022-12-18T16:46:59;30.92;;;13.20;;
57800;SDS011;43627;42.728;23.256;2022-12-18T16:49:28;29.02;;;13.35;;
57800;SDS011;43627;42.728;23.256;2022-12-18T16:51:56;27.65;;;12.30;;
57800;SDS011;43627;42.728;23.256;2022-12-18T16:54:23;26.95;;;13.20;;
57800;SDS011;43627;42.728;23.256;2022-12-18T16:56:50;24.52;;;11.77;;
57800;SDS011;43627;42.728;23.256;2022-12-18T16:59:17;26.95;;;13.20;;
57800;SDS011;43627;42.728;23.256;2022-12-18T17:01:45;25.52;;;11.95;;
57800;SDS011;43627;42.728;23.256;2022-12-18T17:04:13;24.55;;;11.25;;
57800;SDS011;43627;42.728;23.256;2022-12-18T17:06:42;23.73;;;11.35;;